Time;durP1;ratioP1;P1;durP2;ratioP2;P2;SDS_P1;SDS_P2;PMS_P1;PMS_P2;Temp;Humidity;BMP_temperature;BMP_pressure;BME280_temperature;BME280_humidity;BME280_pressure;Samples;Min_cycle;Max_cycle;Signal;HPM_P1;HPM_P2
2023/01/31 00:08:19;;;;;;;0.30;0.10;;;-0.10;87.90;;;;;;20903954;28;20032;-57
2023/01/31 00:18:21;;;;;;;0.32;0.10;;;0.50;85.10;;;;;;20902895;28;20041;-56
2023/01/31 00:28:22;;;;;;;0.20;0.10;;;0.10;87.40;;;;;;20901639;28;20025;-57
2023/01/31 00:38:24;;;;;;;0.20;0.10;;;0.40;86.10;;;;;;20884350;28;20025;-56
2023/01/31 00:48:27;;;;;;;1.55;0.10;;;0.30;87.70;;;;;;20901609;28;20100;-56
2023/01/31 00:58:28;;;;;;;1.08;0.10;;;0.50;83.70;;;;;;20898906;28;20394;-54
2023/01/31 01:08:31;;;;;;;0.20;0.10;;;0.60;82.80;;;;;;20884270;28;20037;-57
2023/01/31 01:18:34;;;;;;;0.65;0.25;;;0.20;85.10;;;;;;20900647;28;20099;-57
2023/01/31 01:28:36;;;;;;;2.75;0.22;;;-0.20;87.10;;;;;;20900110;28;20025;-57
2023/01/31 01:38:40;;;;;;;0.82;0.08;;;-0.20;87.40;;;;;;20902053;28;20412;-56
2023/01/31 01:48:44;;;;;;;0.10;0.00;;;0.00;86.60;;;;;;20915601;28;20037;-56
2023/01/31 01:59:00;;;;;;;0.00;0.00;;;-0.10;85.60;;;;;;20913338;28;20343;-56
2023/01/31 02:09:05;;;;;;;0.85;0.00;;;-0.40;86.20;;;;;;20914980;28;20490;-57
2023/01/31 02:19:21;;;;;;;0.10;0.00;;;-0.30;86.60;;;;;;20894127;28;20036;-57
2023/01/31 02:29:44;;;;;;;0.10;0.00;;;-0.40;85.90;;;;;;20893223;28;20029;-53
2023/01/31 02:40:03;;;;;;;0.00;0.00;;;-0.50;85.40;;;;;;20892725;28;20037;-56
2023/01/31 02:50:23;;;;;;;0.10;0.05;;;-0.80;87.70;;;;;;20889943;28;20029;-56
2023/01/31 03:00:26;;;;;;;1.38;0.13;;;-1.10;87.40;;;;;;20888116;28;20494;-56
2023/01/31 03:10:56;;;;;;;1.08;0.10;;;-1.60;90.00;;;;;;20890275;28;20603;-55
2023/01/31 03:21:14;;;;;;;0.00;0.00;;;-1.60;89.10;;;;;;20873909;28;20442;-57
2023/01/31 03:31:22;;;;;;;0.10;0.10;;;-1.30;89.60;;;;;;20886346;28;20021;-58
2023/01/31 03:41:31;;;;;;;0.43;0.03;;;-1.80;90.00;;;;;;20906806;28;20071;-53
2023/01/31 03:51:38;;;;;;;0.28;0.00;;;-1.80;89.50;;;;;;20887627;28;20482;-56
2023/01/31 04:01:44;;;;;;;0.10;0.00;;;-2.10;90.60;;;;;;20886064;28;20387;-58
2023/01/31 04:11:48;;;;;;;0.38;0.03;;;-2.20;91.00;;;;;;20903850;28;20037;-56
2023/01/31 04:21:50;;;;;;;0.00;0.00;;;-2.30;90.70;;;;;;20904312;28;20033;-57
2023/01/31 04:31:52;;;;;;;0.30;0.10;;;-2.10;90.50;;;;;;20902555;28;20029;-56
2023/01/31 04:41:53;;;;;;;0.55;0.00;;;-1.70;88.70;;;;;;20902032;28;20470;-55
2023/01/31 04:51:55;;;;;;;0.50;0.10;;;-1.60;86.90;;;;;;20901845;28;20063;-56
2023/01/31 05:01:56;;;;;;;0.20;0.00;;;-1.70;86.70;;;;;;20883435;28;20426;-56
2023/01/31 05:11:58;;;;;;;0.10;0.00;;;-1.70;86.40;;;;;;20899624;28;20532;-58
2023/01/31 05:22:00;;;;;;;0.20;0.10;;;-1.80;88.20;;;;;;20909628;28;20467;-56
2023/01/31 05:32:01;;;;;;;1.10;0.05;;;-1.80;86.90;;;;;;20915905;28;20087;-57
2023/01/31 05:42:03;;;;;;;0.25;0.00;;;-2.00;88.70;;;;;;20914983;28;20540;-56
2023/01/31 05:52:05;;;;;;;0.28;0.08;;;-2.10;89.00;;;;;;20914480;28;20029;-54
2023/01/31 06:02:10;;;;;;;1.83;0.00;;;-2.30;89.40;;;;;;20913210;28;20056;-55
2023/01/31 06:12:13;;;;;;;0.93;0.00;;;-2.40;87.90;;;;;;20907808;28;20428;-56
2023/01/31 06:22:15;;;;;;;0.00;0.00;;;-2.40;89.00;;;;;;20911959;28;20079;-56
2023/01/31 06:32:17;;;;;;;0.20;0.03;;;-2.50;88.80;;;;;;20909103;28;20029;-55
2023/01/31 06:42:18;;;;;;;0.20;0.00;;;-2.30;89.10;;;;;;20909441;28;20033;-56
2023/01/31 06:52:20;;;;;;;0.30;0.10;;;-2.60;90.70;;;;;;20910128;28;20029;-56
2023/01/31 07:02:21;;;;;;;1.55;0.10;;;-2.90;91.50;;;;;;20908621;28;20040;-56
2023/01/31 07:12:23;;;;;;;0.30;0.00;;;-3.10;92.10;;;;;;20907743;28;20087;-55
2023/01/31 07:22:25;;;;;;;0.30;0.10;;;-3.00;91.90;;;;;;20907298;28;20033;-56
2023/01/31 07:32:30;;;;;;;0.43;0.05;;;-2.90;90.60;;;;;;20904185;28;20479;-56
2023/01/31 07:42:31;;;;;;;1.25;0.05;;;-2.40;89.90;;;;;;20897513;28;20025;-56
2023/01/31 07:52:33;;;;;;;0.30;0.10;;;-1.80;87.40;;;;;;20905167;28;20036;-57
2023/01/31 08:12:54;;;;;;;0.30;0.00;;;-0.90;88.50;;;;;;20886131;28;20079;-59
2023/01/31 08:22:59;;;;;;;0.85;0.20;;;0.00;86.60;;;;;;20902974;28;20054;-57
2023/01/31 08:33:01;;;;;;;0.52;0.22;;;0.70;85.00;;;;;;20903066;28;20458;-56
2023/01/31 08:43:02;;;;;;;0.40;0.10;;;1.50;83.50;;;;;;20902456;28;20083;-59
2023/01/31 08:53:04;;;;;;;1.02;0.10;;;2.10;82.80;;;;;;20912070;28;20458;-56
2023/01/31 09:03:06;;;;;;;0.57;0.10;;;3.00;79.90;;;;;;20918431;28;20033;-56
2023/01/31 09:13:08;;;;;;;0.35;0.10;;;3.30;84.20;;;;;;20917452;28;20021;-57
2023/01/31 09:23:09;;;;;;;0.47;0.10;;;4.40;79.40;;;;;;20916809;28;20041;-55
2023/01/31 09:33:11;;;;;;;0.88;0.20;;;5.30;77.60;;;;;;20916144;28;20025;-55
2023/01/31 09:43:13;;;;;;;0.30;0.10;;;6.30;71.70;;;;;;20916202;28;20021;-57
2023/01/31 09:53:20;;;;;;;1.50;0.30;;;7.10;71.40;;;;;;20914412;28;20029;-55
2023/01/31 10:03:30;;;;;;;1.73;0.17;;;7.60;70.40;;;;;;20894389;28;20048;-56
2023/01/31 10:13:35;;;;;;;0.55;0.22;;;7.70;69.40;;;;;;20912872;28;20029;-55
2023/01/31 10:24:09;;;;;;;1.13;0.20;;;8.10;67.20;;;;;;20911284;28;20041;-55
2023/01/31 10:34:22;;;;;;;0.55;0.20;;;8.50;63.40;;;;;;20908847;28;20044;-53
2023/01/31 10:44:44;;;;;;;0.82;0.20;;;8.20;62.90;;;;;;20908371;28;20033;-55
2023/01/31 10:55:37;;;;;;;0.95;0.30;;;8.30;64.00;;;;;;20909233;28;20039;-55
2023/01/31 11:05:48;;;;;;;1.35;0.40;;;8.00;63.50;;;;;;20864503;28;20049;-56
2023/01/31 11:15:53;;;;;;;0.50;0.22;;;8.10;64.10;;;;;;20907556;28;20064;-55
2023/01/31 11:25:56;;;;;;;0.60;0.32;;;8.10;67.90;;;;;;20907386;28;20025;-55
2023/01/31 11:35:57;;;;;;;1.35;0.35;;;8.80;64.60;;;;;;20906552;28;20466;-55
2023/01/31 11:46:01;;;;;;;1.35;0.40;;;8.60;62.80;;;;;;20905103;28;20025;-55
2023/01/31 11:56:22;;;;;;;1.10;0.40;;;8.90;63.60;;;;;;20904125;28;20045;-51
2023/01/31 12:06:37;;;;;;;0.75;0.30;;;8.40;61.90;;;;;;20902321;28;20083;-55
2023/01/31 12:16:39;;;;;;;0.63;0.30;;;8.30;63.70;;;;;;20903372;28;20087;-55
2023/01/31 12:26:44;;;;;;;0.75;0.30;;;8.90;66.00;;;;;;20902814;28;20099;-54
2023/01/31 12:37:07;;;;;;;1.48;0.32;;;9.50;64.10;;;;;;20901906;28;20037;-55
2023/01/31 12:47:44;;;;;;;0.55;0.25;;;9.40;63.50;;;;;;20899474;28;20449;-53
2023/01/31 12:58:03;;;;;;;0.95;0.30;;;9.10;62.60;;;;;;20898391;28;20037;-56
2023/01/31 13:08:20;;;;;;;0.98;0.38;;;9.80;58.60;;;;;;20900759;28;20448;-55
2023/01/31 13:18:23;;;;;;;0.40;0.20;;;9.10;65.30;;;;;;20900413;28;20098;-57
2023/01/31 13:28:29;;;;;;;0.47;0.17;;;9.20;64.60;;;;;;20882326;28;20037;-56
2023/01/31 13:38:42;;;;;;;0.88;0.60;;;8.70;63.50;;;;;;20907712;28;20039;-56
2023/01/31 13:49:02;;;;;;;0.82;0.50;;;8.60;68.40;;;;;;20911837;28;20037;-57
2023/01/31 13:59:08;;;;;;;0.93;0.43;;;8.40;68.90;;;;;;20912758;28;20037;-57
2023/01/31 14:09:22;;;;;;;1.00;0.43;;;8.40;65.80;;;;;;20913682;28;20037;-56
2023/01/31 14:19:23;;;;;;;4.75;0.47;;;8.00;63.40;;;;;;20912710;28;20033;-58
2023/01/31 14:29:26;;;;;;;1.33;0.35;;;7.60;64.80;;;;;;20912827;28;20028;-58
2023/01/31 14:39:40;;;;;;;2.67;0.70;;;7.10;67.20;;;;;;20910939;28;20033;-58
2023/01/31 14:49:54;;;;;;;1.63;0.60;;;6.40;67.00;;;;;;20907655;28;20092;-56
2023/01/31 15:00:13;;;;;;;2.92;0.60;;;5.10;66.10;;;;;;20909392;28;20497;-57
2023/01/31 15:10:53;;;;;;;2.58;0.77;;;4.70;70.90;;;;;;20906951;28;20402;-56
2023/01/31 15:20:57;;;;;;;2.00;0.50;;;4.20;70.90;;;;;;20908350;28;20025;-56
2023/01/31 15:31:11;;;;;;;1.10;0.50;;;3.70;72.20;;;;;;20906808;28;20036;-57
2023/01/31 15:41:43;;;;;;;5.35;0.52;;;3.30;73.30;;;;;;20906915;28;20170;-57
2023/01/31 15:51:45;;;;;;;0.68;0.30;;;2.40;81.40;;;;;;20888150;28;20049;-59
2023/01/31 16:01:53;;;;;;;0.93;0.40;;;1.70;85.20;;;;;;20902238;28;20071;-59
2023/01/31 16:11:57;;;;;;;1.70;0.50;;;1.10;90.20;;;;;;20905029;28;20025;-58
2023/01/31 16:21:59;;;;;;;1.63;0.30;;;1.20;82.90;;;;;;20903271;28;20031;-57
2023/01/31 16:32:01;;;;;;;1.77;0.57;;;1.90;76.10;;;;;;20902279;28;20037;-57
2023/01/31 16:42:22;;;;;;;0.60;0.20;;;1.70;81.40;;;;;;20893083;28;20041;-56
2023/01/31 16:52:28;;;;;;;0.93;0.32;;;1.60;78.80;;;;;;20902156;28;20029;-59
2023/01/31 17:02:33;;;;;;;0.30;0.10;;;2.20;73.40;;;;;;20882841;28;20402;-59
2023/01/31 17:12:38;;;;;;;0.45;0.10;;;2.10;79.30;;;;;;20908071;28;20029;-59
2023/01/31 17:22:39;;;;;;;0.35;0.20;;;1.50;77.20;;;;;;20915947;28;20055;-59
2023/01/31 17:32:41;;;;;;;0.28;0.10;;;0.80;88.30;;;;;;20915712;28;20040;-58
2023/01/31 17:42:43;;;;;;;1.00;0.10;;;0.00;87.90;;;;;;20913114;28;20501;-58
2023/01/31 17:52:45;;;;;;;0.32;0.10;;;0.00;90.40;;;;;;20913470;28;20021;-59
2023/01/31 18:02:46;;;;;;;0.30;0.10;;;-0.30;90.80;;;;;;20911321;28;20102;-57
2023/01/31 18:12:48;;;;;;;0.50;0.10;;;-0.70;91.80;;;;;;20912940;28;20028;-56
2023/01/31 18:22:53;;;;;;;0.55;0.20;;;-0.80;91.20;;;;;;20912076;28;20032;-56
2023/01/31 18:32:54;;;;;;;0.95;0.30;;;-0.80;91.20;;;;;;20913647;28;20370;-57
2023/01/31 18:42:56;;;;;;;0.95;0.20;;;-0.70;91.40;;;;;;20910370;28;20036;-56
2023/01/31 18:52:58;;;;;;;0.40;0.10;;;-0.90;92.00;;;;;;20910429;28;20029;-56
2023/01/31 19:03:00;;;;;;;0.20;0.10;;;-0.90;92.90;;;;;;20898891;28;20512;-57
2023/01/31 19:13:02;;;;;;;2.92;0.20;;;-1.10;92.40;;;;;;20908404;28;20032;-57
2023/01/31 19:23:04;;;;;;;0.63;0.10;;;-1.00;91.00;;;;;;20907674;28;20090;-56
2023/01/31 19:33:06;;;;;;;0.40;0.20;;;0.50;80.20;;;;;;20905590;28;20029;-56
2023/01/31 19:43:08;;;;;;;2.13;0.10;;;0.90;79.70;;;;;;20905392;28;20025;-57
2023/01/31 19:53:10;;;;;;;0.50;0.20;;;0.40;85.80;;;;;;20905357;28;20044;-57
2023/01/31 20:03:12;;;;;;;0.63;0.20;;;0.00;84.90;;;;;;20901668;28;20347;-56
2023/01/31 20:13:13;;;;;;;0.60;0.20;;;0.10;90.30;;;;;;20899891;28;20025;-56
2023/01/31 20:23:15;;;;;;;0.35;0.10;;;0.10;89.90;;;;;;20899890;28;20402;-57
2023/01/31 20:33:18;;;;;;;0.40;0.10;;;0.30;90.60;;;;;;20881462;28;20033;-57
2023/01/31 20:43:21;;;;;;;0.57;0.10;;;0.10;92.10;;;;;;20897283;28;20052;-59
2023/01/31 20:53:24;;;;;;;0.65;0.20;;;0.60;91.40;;;;;;20898203;28;20059;-59
2023/01/31 21:03:27;;;;;;;0.93;0.30;;;1.00;89.20;;;;;;20851916;28;1385253;-60
2023/01/31 21:13:30;;;;;;;0.40;0.20;;;1.00;85.90;;;;;;20901175;28;20044;-59
2023/01/31 21:23:34;;;;;;;0.40;0.10;;;0.70;90.40;;;;;;20900231;28;20021;-58
2023/01/31 21:33:35;;;;;;;0.45;0.20;;;0.70;90.80;;;;;;20899770;28;20437;-60
2023/01/31 21:43:40;;;;;;;0.82;0.10;;;0.90;90.80;;;;;;20899958;28;20351;-61
2023/01/31 21:53:42;;;;;;;1.85;0.20;;;0.70;90.30;;;;;;20899554;28;20115;-59
2023/01/31 22:03:49;;;;;;;2.20;0.10;;;0.30;91.70;;;;;;20913017;28;20041;-59
2023/01/31 22:13:52;;;;;;;0.20;0.10;;;0.00;94.60;;;;;;20913025;28;20033;-58
2023/01/31 22:23:56;;;;;;;0.13;0.10;;;0.00;95.00;;;;;;20910004;28;20033;-59
2023/01/31 22:33:59;;;;;;;1.10;0.10;;;0.50;91.70;;;;;;20908718;28;20033;-59
2023/01/31 22:44:00;;;;;;;0.20;0.10;;;2.10;73.60;;;;;;20910402;28;20474;-58
2023/01/31 22:54:02;;;;;;;0.17;0.10;;;2.70;71.00;;;;;;20908046;28;20106;-59
2023/01/31 23:04:07;;;;;;;0.68;0.10;;;2.60;77.30;;;;;;20907496;28;20049;-56
2023/01/31 23:14:08;;;;;;;0.90;0.00;;;1.50;82.50;;;;;;20905715;28;20029;-58
2023/01/31 23:24:14;;;;;;;0.10;0.00;;;1.20;85.10;;;;;;20905542;28;20456;-61
2023/01/31 23:34:16;;;;;;;0.20;0.00;;;0.70;90.50;;;;;;20905343;28;20174;-58
2023/01/31 23:44:17;;;;;;;0.00;0.00;;;0.10;91.50;;;;;;20905774;28;20425;-60
2023/01/31 23:54:19;;;;;;;2.92;0.20;;;-0.10;92.90;;;;;;20905292;28;20029;-59
